Las Vegas, Nevada
Traffic Map
Current Weather Conditions
Las Vegas, Nevada
Clear
Clear

Feels Like: 5°
Wind Chill: Ceiling: Unl
Heat Index: Visibility: 10mi
Dew Point: -12° Wind: 16mph
Humidity: 22% Direction: 350° (N)
Pressure: 30.19in Gusts: 0mph
Raw Report DataKLAS 030356Z 35014KT 10SM CLR 09/M12 A3019 RMK AO2 SLP221 T00891117
Traffic Incident Summary
Active as of:
Severity:
Category:
InformationThere was an issue retrieving the traffic information for this location. Please try a different location or try again shortly.
Advertisements
Track Severe Weather on mobile